Time;durP1;ratioP1;P1;durP2;ratioP2;P2;SDS_P1;SDS_P2;PMS_P1;PMS_P2;Temp;Humidity;BMP_temperature;BMP_pressure;BME280_temperature;BME280_humidity;BME280_pressure;Samples;Min_cycle;Max_cycle;Signal;HPM_P1;HPM_P2
2022/08/26 00:01:18;;;;;;;18.93;5.57;;;;;;;19.61;73.13;100061.66;1462023;88;21514;-85
2022/08/26 00:03:45;;;;;;;22.80;6.07;;;;;;;19.59;72.82;100052.17;1454452;88;22047;-82
2022/08/26 00:06:12;;;;;;;13.77;5.53;;;;;;;19.57;72.84;100056.95;1440652;89;21541;-82
2022/08/26 00:08:40;;;;;;;13.97;4.60;;;;;;;19.52;73.00;100058.11;1446454;89;22359;-86
2022/08/26 00:11:07;;;;;;;13.40;5.47;;;;;;;19.47;73.17;100055.23;1458979;88;21432;-85
2022/08/26 00:13:35;;;;;;;22.17;5.77;;;;;;;19.44;73.18;100054.33;1438795;90;21420;-85
2022/08/26 00:16:03;;;;;;;10.50;4.93;;;;;;;19.42;73.19;100053.71;1436949;89;21582;-82
2022/08/26 00:18:29;;;;;;;24.47;6.60;;;;;;;19.41;73.60;100060.95;1449490;90;21454;-84
2022/08/26 00:20:56;;;;;;;12.87;5.20;;;;;;;19.40;73.24;100064.67;1450314;89;22357;-85
2022/08/26 00:23:22;;;;;;;16.83;6.23;;;;;;;19.42;73.05;100057.73;1414639;91;21494;-84
2022/08/26 00:25:49;;;;;;;18.97;6.70;;;;;;;19.39;72.87;100053.13;1468279;88;21440;-85
2022/08/26 00:28:15;;;;;;;16.43;5.10;;;;;;;19.37;72.77;100053.03;1467466;88;22276;-85
2022/08/26 00:30:42;;;;;;;19.37;5.90;;;;;;;19.32;72.83;100056.87;1448220;90;21433;-85
2022/08/26 00:33:08;;;;;;;17.83;6.10;;;;;;;19.29;73.47;100054.09;1428014;91;21471;-84
2022/08/26 00:35:35;;;;;;;18.30;5.63;;;;;;;19.27;73.35;100050.79;1441650;89;21429;-84
2022/08/26 00:38:02;;;;;;;12.83;5.13;;;;;;;19.27;73.42;100048.62;1445472;89;22499;-82
2022/08/26 00:40:34;;;;;;;11.43;6.83;;;;;;;19.25;73.45;100052.03;1448052;88;21439;-82
2022/08/26 00:43:03;;;;;;;14.53;5.03;;;;;;;19.21;73.71;100054.33;1461159;88;21536;-83
2022/08/26 00:45:41;;;;;;;12.30;5.70;;;;;;;19.15;73.41;100056.00;1450295;88;21496;-81
2022/08/26 00:48:08;;;;;;;12.17;5.30;;;;;;;19.12;73.08;100065.00;1472533;88;22465;-84
2022/08/26 00:50:39;;;;;;;17.67;5.00;;;;;;;19.10;73.30;100063.89;1447862;88;21390;-85
2022/08/26 00:53:20;;;;;;;12.17;5.07;;;;;;;19.08;73.24;100061.92;1457416;88;21476;-85
2022/08/26 00:55:40;;;;;;;12.20;5.70;;;;;;;19.05;73.51;100058.33;1450301;88;21586;-85
2022/08/26 00:58:07;;;;;;;16.57;5.93;;;;;;;19.06;73.45;100055.94;1458965;88;21583;-82
2022/08/26 01:00:34;;;;;;;13.10;4.97;;;;;;;19.06;73.31;100055.13;1469539;88;21556;-85
2022/08/26 01:03:02;;;;;;;17.13;4.93;;;;;;;19.04;74.37;100050.48;1467115;88;21617;-84
2022/08/26 01:05:29;;;;;;;14.17;5.73;;;;;;;19.01;74.27;100058.43;1462344;88;21633;-85
2022/08/26 01:07:55;;;;;;;10.90;5.10;;;;;;;18.99;73.85;100058.33;1464435;88;22308;-84
2022/08/26 01:10:26;;;;;;;16.63;4.83;;;;;;;18.91;73.93;100061.56;1460095;88;21399;-82
2022/08/26 01:13:00;;;;;;;13.57;5.10;;;;;;;18.87;74.06;100064.87;1459229;88;21368;-84
2022/08/26 01:15:37;;;;;;;10.63;4.33;;;;;;;18.86;73.89;100065.39;1442732;90;22327;-85
2022/08/26 01:18:05;;;;;;;11.30;4.90;;;;;;;18.86;73.78;100064.05;1448544;90;22373;-83
2022/08/26 01:20:46;;;;;;;21.33;6.23;;;;;;;18.84;73.45;100067.97;1451241;88;21404;-84
2022/08/26 01:23:13;;;;;;;13.37;5.07;;;;;;;18.83;73.00;100067.16;1451570;90;22181;-85
2022/08/26 01:25:48;;;;;;;11.37;5.00;;;;;;;18.79;72.75;100068.63;1452637;90;22369;-83
2022/08/26 01:28:20;;;;;;;9.60;5.03;;;;;;;18.80;72.82;100066.23;1457191;88;21661;-84
2022/08/26 01:30:50;;;;;;;16.50;4.67;;;;;;;18.77;74.04;100061.30;1458615;88;21527;-85
2022/08/26 01:33:22;;;;;;;18.73;5.70;;;;;;;18.75;73.29;100063.87;1461777;89;21493;-86
2022/08/26 01:35:49;;;;;;;8.57;4.57;;;;;;;18.73;72.84;100058.70;1456901;89;21411;-85
2022/08/26 01:38:17;;;;;;;17.97;5.50;;;;;;;18.74;72.75;100059.56;1451310;89;21538;-86
2022/08/26 01:40:44;;;;;;;9.20;5.00;;;;;;;18.75;72.41;100059.33;1391885;88;21519;-83
2022/08/26 01:43:16;;;;;;;15.53;5.80;;;;;;;18.76;72.08;100058.31;1426352;89;22074;-85
2022/08/26 01:45:44;;;;;;;14.23;6.07;;;;;;;18.76;71.84;100062.34;1408201;90;21397;-84
2022/08/26 01:48:16;;;;;;;12.17;5.33;;;;;;;18.75;71.75;100057.98;1452907;89;21397;-85
2022/08/26 01:50:44;;;;;;;13.87;5.77;;;;;;;18.74;71.69;100064.92;1464868;88;21456;-85
2022/08/26 01:53:14;;;;;;;8.03;4.23;;;;;;;18.70;71.62;100057.76;1456987;88;21514;-84
2022/08/26 01:55:44;;;;;;;5.10;3.55;;;;;;;18.68;71.72;100058.50;1451524;88;22314;-85
2022/08/26 01:58:31;;;;;;;8.95;4.12;;;;;;;18.66;71.96;100059.22;1469505;88;21477;-82
2022/08/26 02:00:58;;;;;;;14.80;5.10;;;;;;;18.64;72.24;100054.58;1459553;88;22344;-84
2022/08/26 02:03:26;;;;;;;12.77;4.90;;;;;;;18.64;71.84;100053.23;1451903;88;21423;-85
2022/08/26 02:05:57;;;;;;;15.57;4.47;;;;;;;18.62;71.50;100056.14;1429206;88;21501;-82
2022/08/26 02:08:44;;;;;;;12.40;4.83;;;;;;;18.60;71.24;100054.70;1451380;88;21448;-85
2022/08/26 02:11:12;;;;;;;15.47;5.00;;;;;;;18.59;71.44;100054.41;1450093;90;22424;-83
2022/08/26 02:13:46;;;;;;;12.33;5.27;;;;;;;18.54;72.01;100056.88;1446773;90;21430;-82
2022/08/26 02:16:17;;;;;;;10.27;4.70;;;;;;;18.50;72.16;100048.44;1444762;88;21549;-84
2022/08/26 02:18:44;;;;;;;9.93;4.37;;;;;;;18.46;72.36;100053.38;1460132;88;21400;-84
2022/08/26 02:21:12;;;;;;;10.73;4.50;;;;;;;18.42;72.87;100054.83;1454037;88;21576;-82
2022/08/26 02:23:39;;;;;;;10.43;5.23;;;;;;;18.42;72.83;100052.67;1465577;88;21433;-84
2022/08/26 02:26:16;;;;;;;11.53;5.20;;;;;;;18.42;72.82;100054.83;1449107;88;22273;-82
2022/08/26 02:28:57;;;;;;;16.43;4.97;;;;;;;18.40;72.96;100055.55;1461523;88;21392;-83
2022/08/26 02:31:24;;;;;;;15.50;5.67;;;;;;;18.38;72.43;100056.27;1461312;88;21417;-85
2022/08/26 02:33:50;;;;;;;9.07;4.70;;;;;;;18.36;72.53;100062.36;1457089;88;21443;-84
2022/08/26 02:36:23;;;;;;;14.60;4.60;;;;;;;18.34;72.37;100063.60;1454506;90;21452;-84
2022/08/26 02:38:50;;;;;;;11.90;4.93;;;;;;;18.32;72.71;100055.75;1436009;89;21666;-83
2022/08/26 02:41:17;;;;;;;11.00;4.57;;;;;;;18.31;73.44;100062.16;1454900;88;21410;-84
2022/08/26 02:43:43;;;;;;;7.73;4.67;;;;;;;18.31;73.46;100056.80;1452666;88;21739;-83
2022/08/26 02:46:09;;;;;;;12.53;4.87;;;;;;;18.31;73.92;100055.98;1446236;88;21451;-82
2022/08/26 02:48:35;;;;;;;14.07;5.30;;;;;;;18.32;73.67;100056.28;1458475;88;21429;-82
2022/08/26 02:51:01;;;;;;;10.27;5.53;;;;;;;18.30;73.65;100061.86;1466317;88;22566;-83
2022/08/26 02:53:29;;;;;;;12.13;5.70;;;;;;;18.26;73.23;100065.97;1458520;88;21454;-85
2022/08/26 02:55:55;;;;;;;9.70;5.37;;;;;;;18.22;72.91;100070.09;1463869;88;21450;-83
2022/08/26 02:58:21;;;;;;;6.93;4.27;;;;;;;18.17;73.12;100065.34;1461528;88;22465;-84
2022/08/26 03:00:47;;;;;;;11.43;5.30;;;;;;;18.16;73.88;100068.25;1463506;88;21522;-85
2022/08/26 03:03:14;;;;;;;17.40;4.93;;;;;;;18.15;73.89;100065.23;1458238;88;21407;-84
2022/08/26 03:05:41;;;;;;;8.47;4.60;;;;;;;18.13;74.59;100069.48;1458779;88;22363;-83
2022/08/26 03:08:10;;;;;;;9.07;4.70;;;;;;;18.11;74.46;100070.71;1462187;88;21474;-84
2022/08/26 03:10:36;;;;;;;12.50;5.20;;;;;;;18.09;74.23;100062.05;1465794;88;22431;-83
2022/08/26 03:13:02;;;;;;;12.53;5.43;;;;;;;18.08;73.95;100071.13;1463696;88;22322;-84
2022/08/26 03:15:28;;;;;;;12.03;5.10;;;;;;;18.06;73.97;100067.30;1455607;88;21450;-83
2022/08/26 03:17:54;;;;;;;7.10;4.53;;;;;;;18.03;73.91;100068.53;1458848;88;21457;-84
2022/08/26 03:20:21;;;;;;;7.70;4.67;;;;;;;18.01;74.15;100068.42;1463702;88;21562;-83
2022/08/26 03:22:50;;;;;;;9.80;4.90;;;;;;;18.00;74.79;100069.45;1470999;89;21648;-82
2022/08/26 03:25:16;;;;;;;10.67;4.77;;;;;;;17.99;75.39;100064.63;1451562;89;21687;-81
2022/08/26 03:27:42;;;;;;;9.53;5.17;;;;;;;17.98;75.13;100067.00;1457202;89;21553;-82
2022/08/26 03:32:56;;;;;;;11.23;5.03;;;;;;;17.96;74.87;100063.70;1454847;89;22313;-83
2022/08/26 03:35:24;;;;;;;7.90;5.30;;;;;;;17.93;74.67;100061.44;1441703;90;22354;-82
2022/08/26 03:37:51;;;;;;;12.10;5.23;;;;;;;17.92;74.83;100064.30;1444227;90;21477;-81
2022/08/26 03:40:18;;;;;;;15.23;4.27;;;;;;;17.90;75.22;100057.83;1447495;90;21461;-84
2022/08/26 03:42:44;;;;;;;8.87;4.27;;;;;;;17.88;75.68;100059.88;1451327;90;22548;-81
2022/08/26 03:45:12;;;;;;;18.20;4.60;;;;;;;17.90;75.78;100059.16;1446936;89;21632;-81
2022/08/26 03:47:39;;;;;;;14.73;5.37;;;;;;;17.91;75.71;100064.82;1444910;89;21492;-83
2022/08/26 03:50:10;;;;;;;17.20;5.17;;;;;;;17.93;75.79;100067.30;1421696;91;22459;-82
2022/08/26 03:52:36;;;;;;;9.10;4.70;;;;;;;17.93;75.59;100068.64;1452535;89;21508;-83
2022/08/26 03:55:06;;;;;;;10.93;4.90;;;;;;;17.91;75.86;100061.33;1458392;89;21472;-82
2022/08/26 03:57:32;;;;;;;13.60;4.60;;;;;;;17.91;75.48;100062.66;1460573;89;22110;-83
2022/08/26 03:59:58;;;;;;;11.57;4.50;;;;;;;17.90;75.47;100064.52;1449181;89;22098;-82
2022/08/26 04:02:26;;;;;;;18.20;4.93;;;;;;;17.90;76.07;100072.55;1454379;89;21473;-83
2022/08/26 04:04:52;;;;;;;14.70;5.30;;;;;;;17.89;76.38;100066.87;1462973;89;21538;-84
2022/08/26 04:07:18;;;;;;;8.83;5.40;;;;;;;17.90;76.02;100065.86;1452310;89;21444;-84
2022/08/26 04:09:45;;;;;;;13.83;4.90;;;;;;;17.91;76.13;100062.66;1454516;90;22397;-83
2022/08/26 04:12:11;;;;;;;12.60;5.30;;;;;;;17.90;75.88;100063.18;1466306;89;21499;-84
2022/08/26 04:14:37;;;;;;;17.23;5.63;;;;;;;17.93;75.87;100068.13;1458118;89;21524;-84
2022/08/26 04:17:04;;;;;;;14.03;5.63;;;;;;;17.93;75.64;100063.29;1463044;89;21714;-82
2022/08/26 04:19:31;;;;;;;10.93;4.53;;;;;;;17.94;75.68;100068.42;1458350;89;22580;-84
2022/08/26 04:21:58;;;;;;;12.93;4.87;;;;;;;17.97;75.85;100065.86;1462318;89;22011;-83
2022/08/26 04:24:26;;;;;;;14.50;4.43;;;;;;;18.00;75.73;100069.45;1449798;89;21501;-84
2022/08/26 04:26:52;;;;;;;12.63;5.13;;;;;;;18.02;75.71;100073.58;1451220;89;21501;-84
2022/08/26 04:29:23;;;;;;;16.97;5.40;;;;;;;18.02;75.51;100067.41;1460239;89;21501;-85
2022/08/26 04:31:49;;;;;;;12.73;5.10;;;;;;;18.04;75.34;100060.83;1456640;89;22352;-84
2022/08/26 04:34:16;;;;;;;14.73;5.40;;;;;;;18.04;75.38;100068.04;1456419;89;21412;-83
2022/08/26 04:36:43;;;;;;;12.33;4.87;;;;;;;18.04;75.43;100067.52;1457143;89;21456;-84
2022/08/26 04:39:11;;;;;;;15.13;5.77;;;;;;;18.08;75.68;100068.45;1463257;89;22438;-85
2022/08/26 04:41:38;;;;;;;14.50;4.67;;;;;;;18.13;76.05;100069.48;1451449;89;21488;-83
2022/08/26 04:44:05;;;;;;;18.57;4.87;;;;;;;18.17;76.20;100064.53;1455426;89;21509;-82
2022/08/26 04:46:31;;;;;;;13.23;5.57;;;;;;;18.23;76.04;100069.05;1456259;89;21530;-84
2022/08/26 04:48:58;;;;;;;18.50;6.20;;;;;;;18.29;75.75;100070.91;1452248;89;22471;-84
2022/08/26 04:51:27;;;;;;;8.37;5.03;;;;;;;18.36;75.50;100077.09;1457270;89;21546;-84
2022/08/26 04:53:56;;;;;;;14.37;4.87;;;;;;;18.42;75.65;100073.59;1451402;89;21791;-81
2022/08/26 04:56:28;;;;;;;12.63;4.53;;;;;;;18.46;75.10;100069.45;1443309;89;21614;-82
2022/08/26 04:58:54;;;;;;;16.10;5.17;;;;;;;18.55;74.89;100071.92;1435618;89;21648;-83
2022/08/26 05:01:22;;;;;;;13.30;5.50;;;;;;;18.65;74.58;100075.01;1452523;89;22184;-84
2022/08/26 05:03:49;;;;;;;13.50;5.23;;;;;;;18.74;74.15;100072.44;1455258;89;22367;-81
2022/08/26 05:06:16;;;;;;;11.43;4.90;;;;;;;18.82;73.63;100070.87;1446966;89;21480;-83
2022/08/26 05:08:42;;;;;;;16.73;5.67;;;;;;;18.91;73.17;100072.29;1441177;89;21584;-84
2022/08/26 05:11:08;;;;;;;11.27;5.50;;;;;;;19.02;72.97;100074.00;1445310;90;21549;-85
2022/08/26 05:13:37;;;;;;;8.27;5.03;;;;;;;19.07;72.62;100073.67;1454938;89;21529;-84
2022/08/26 05:16:08;;;;;;;10.97;4.37;;;;;;;19.10;72.07;100071.94;1449814;90;21631;-84
2022/08/26 05:18:36;;;;;;;15.13;5.43;;;;;;;19.16;71.50;100075.10;1456910;89;22410;-84
2022/08/26 05:21:03;;;;;;;15.83;4.87;;;;;;;19.26;71.83;100075.98;1456100;89;23543;-84
2022/08/26 05:23:33;;;;;;;15.60;4.73;;;;;;;19.33;71.61;100067.40;1445191;89;22485;-82
2022/08/26 05:25:59;;;;;;;8.58;4.17;;;;;;;19.44;71.14;100067.75;1448774;89;22080;-84
2022/08/26 05:28:28;;;;;;;16.85;4.83;;;;;;;19.51;70.70;100070.70;1456105;89;22365;-83
2022/08/26 05:30:55;;;;;;;10.90;5.70;;;;;;;19.62;70.56;100081.27;1434229;88;22104;-83
2022/08/26 05:33:22;;;;;;;20.95;5.30;;;;;;;19.68;70.33;100074.23;1436850;89;21487;-82
2022/08/26 05:35:48;;;;;;;17.50;4.70;;;;;;;19.75;69.77;100074.52;1443024;89;21436;-83
2022/08/26 05:38:19;;;;;;;14.83;5.10;;;;;;;19.79;69.15;100071.72;1451656;90;21466;-83
2022/08/26 05:40:49;;;;;;;15.38;5.25;;;;;;;19.89;68.92;100078.47;1456325;89;21481;-82
2022/08/26 05:43:17;;;;;;;11.12;5.30;;;;;;;19.97;68.96;100079.03;1466407;88;21434;-80
2022/08/26 05:45:47;;;;;;;18.73;4.87;;;;;;;20.09;68.75;100084.52;1475347;88;21501;-83
2022/08/26 05:48:17;;;;;;;14.33;5.25;;;;;;;20.18;67.81;100085.07;1460840;89;21412;-81
2022/08/26 05:50:50;;;;;;;19.37;5.45;;;;;;;20.27;67.67;100093.16;1447028;89;22433;-84
2022/08/26 05:53:19;;;;;;;12.35;4.15;;;;;;;20.40;68.28;100084.98;1465529;88;21569;-84
2022/08/26 05:55:50;;;;;;;15.27;6.07;;;;;;;20.55;67.43;100083.33;1456840;89;22263;-83
2022/08/26 05:58:20;;;;;;;18.27;5.05;;;;;;;20.62;65.67;100087.29;1456136;89;21465;-85
2022/08/26 06:00:59;;;;;;;11.43;5.05;;;;;;;20.75;65.04;100089.05;1450652;89;21377;-81
2022/08/26 06:03:25;;;;;;;11.43;5.03;;;;;;;20.89;65.40;100084.64;1441262;91;21434;-83
2022/08/26 06:05:52;;;;;;;11.10;5.62;;;;;;;21.06;65.24;100083.52;1427969;90;21578;-84
2022/08/26 06:08:19;;;;;;;9.83;4.53;;;;;;;21.16;63.61;100087.84;1456694;89;22426;-84
2022/08/26 06:10:55;;;;;;;12.25;4.72;;;;;;;21.17;61.93;100084.09;1447974;90;22307;-83
2022/08/26 06:13:26;;;;;;;13.38;5.20;;;;;;;21.33;63.00;100084.54;1456589;90;21418;-83
2022/08/26 06:15:55;;;;;;;30.12;5.90;;;;;;;21.47;62.80;100082.01;1420195;91;22374;-84
2022/08/26 06:18:33;;;;;;;18.05;5.20;;;;;;;21.62;61.99;100084.28;1445641;89;22376;-82
2022/08/26 06:21:22;;;;;;;13.40;4.83;;;;;;;21.68;60.51;100081.20;1442160;89;21414;-83
2022/08/26 06:26:37;;;;;;;16.02;5.22;;;;;;;21.95;60.50;100081.13;1434631;89;21510;-84
2022/08/26 06:29:06;;;;;;;12.82;4.78;;;;;;;22.07;59.83;100086.00;1433076;89;22345;-83
2022/08/26 06:31:34;;;;;;;13.38;4.33;;;;;;;22.22;59.86;100084.77;1444023;90;21532;-81
2022/08/26 06:34:03;;;;;;;11.40;5.62;;;;;;;22.35;59.19;100091.27;1435909;90;21422;-82
2022/08/26 06:36:31;;;;;;;15.78;5.37;;;;;;;22.48;59.04;100088.36;1454223;88;21412;-81
2022/08/26 06:39:24;;;;;;;8.80;4.37;;;;;;;22.62;58.29;100086.47;1430208;90;22526;-82
2022/08/26 06:41:50;;;;;;;12.05;4.87;;;;;;;22.72;59.08;100086.47;1524372;90;21311;-82
2022/08/26 06:44:19;;;;;;;9.10;4.55;;;;;;;22.93;57.50;100102.59;1412439;90;21990;-81
2022/08/26 06:46:45;;;;;;;12.20;4.97;;;;;;;23.04;57.03;100092.85;1373105;89;21361;-83
2022/08/26 06:49:12;;;;;;;6.28;3.98;;;;;;;23.18;56.59;100096.11;1381965;89;22290;-83
2022/08/26 06:51:39;;;;;;;8.03;5.05;;;;;;;23.31;56.70;100097.20;1377026;90;22381;-82
2022/08/26 06:54:08;;;;;;;12.55;5.08;;;;;;;23.42;56.09;100097.70;1373530;90;21522;-81
2022/08/26 06:56:39;;;;;;;10.55;4.12;;;;;;;23.58;55.97;100095.28;1449712;89;22659;-80
2022/08/26 06:59:08;;;;;;;10.20;4.33;;;;;;;23.61;52.12;100097.50;1423638;89;21700;-80
2022/08/26 07:01:38;;;;;;;14.55;4.67;;;;;;;23.71;53.45;100095.03;1415233;89;22526;-81
2022/08/26 07:04:06;;;;;;;13.83;4.90;;;;;;;23.89;53.93;100094.53;1449941;89;21627;-80
2022/08/26 07:06:39;;;;;;;10.98;5.03;;;;;;;23.98;50.50;100098.47;1461244;89;21540;-81
2022/08/26 07:09:08;;;;;;;18.07;5.45;;;;;;;24.04;51.24;100085.33;1454674;88;21428;-80
2022/08/26 07:11:37;;;;;;;19.87;4.67;;;;;;;24.14;50.95;100089.56;1424987;91;21574;-80
2022/08/26 07:14:03;;;;;;;11.10;4.50;;;;;;;24.31;52.22;100090.38;1458485;89;21471;-80
2022/08/26 07:16:30;;;;;;;15.70;4.28;;;;;;;24.49;52.01;100085.81;1455322;89;21471;-81
2022/08/26 07:18:57;;;;;;;14.00;5.08;;;;;;;24.66;51.29;100087.95;1452251;89;21479;-81
2022/08/26 07:21:24;;;;;;;14.93;4.72;;;;;;;24.80;49.45;100087.58;1426282;89;21450;-80
2022/08/26 07:23:53;;;;;;;17.27;5.08;;;;;;;24.91;49.88;100078.53;1376880;89;21418;-80
2022/08/26 07:26:23;;;;;;;12.37;4.08;;;;;;;25.08;50.50;100078.48;1377482;90;21435;-81
2022/08/26 07:28:51;;;;;;;13.15;5.53;;;;;;;25.26;50.21;100072.80;1451898;90;22499;-81
2022/08/26 07:31:20;;;;;;;9.85;4.25;;;;;;;25.34;49.03;100072.31;1450154;88;22225;-80
2022/08/26 07:33:47;;;;;;;13.55;4.20;;;;;;;25.49;49.25;100073.56;1436713;90;21408;-81
2022/08/26 07:36:15;;;;;;;12.98;3.87;;;;;;;25.65;49.58;100076.17;1438411;90;22299;-82
2022/08/26 07:38:43;;;;;;;11.08;3.90;;;;;;;25.82;48.87;100064.42;1438750;88;21903;-81
2022/08/26 07:41:12;;;;;;;18.05;4.30;;;;;;;25.99;48.23;100070.56;1439017;88;21600;-79
2022/08/26 07:43:38;;;;;;;16.20;4.70;;;;;;;26.12;46.18;100066.59;1449953;90;21477;-82
2022/08/26 07:46:06;;;;;;;13.28;4.55;;;;;;;26.22;47.08;100060.45;1448533;89;21558;-81
2022/08/26 07:48:34;;;;;;;17.65;5.08;;;;;;;26.35;47.05;100062.69;1444836;89;21632;-82
2022/08/26 07:51:00;;;;;;;11.75;3.77;;;;;;;26.37;44.55;100059.19;1454374;90;22535;-82
2022/08/26 07:53:26;;;;;;;13.60;3.72;;;;;;;26.50;45.89;100061.48;1446683;90;21664;-83
2022/08/26 07:55:52;;;;;;;17.02;4.85;;;;;;;26.64;45.55;100062.36;1457731;89;21619;-82
2022/08/26 07:58:19;;;;;;;12.90;3.60;;;;;;;26.81;45.30;100057.56;1439833;90;21560;-81
2022/08/26 08:00:46;;;;;;;10.43;3.77;;;;;;;26.98;45.46;100059.55;1448297;89;21479;-81
2022/08/26 08:03:13;;;;;;;11.45;4.00;;;;;;;27.13;45.22;100060.17;1450094;89;21398;-80
2022/08/26 08:05:41;;;;;;;9.38;4.55;;;;;;;27.25;44.85;100050.46;1466982;89;21471;-82
2022/08/26 08:08:09;;;;;;;9.85;4.15;;;;;;;27.43;44.75;100058.11;1460295;88;21578;-81
2022/08/26 08:10:36;;;;;;;12.20;4.08;;;;;;;27.54;44.07;100045.91;1417964;90;21468;-80
2022/08/26 08:13:05;;;;;;;7.62;3.47;;;;;;;27.67;43.56;100040.73;1430080;90;21468;-81
2022/08/26 08:15:34;;;;;;;12.33;3.98;;;;;;;27.79;42.90;100033.70;1418164;90;22318;-81
2022/08/26 08:18:00;;;;;;;8.95;3.33;;;;;;;27.97;43.11;100035.64;1455278;88;22424;-81
2022/08/26 08:20:27;;;;;;;13.60;3.90;;;;;;;28.12;42.52;100032.91;1447293;90;22225;-81
2022/08/26 08:22:54;;;;;;;17.90;4.42;;;;;;;28.21;41.00;100033.17;1424448;92;21526;-82
2022/08/26 08:25:22;;;;;;;23.40;3.83;;;;;;;28.23;41.64;100031.81;1426208;90;21595;-81
2022/08/26 08:27:48;;;;;;;12.78;3.67;;;;;;;28.31;39.93;100029.89;1447709;88;21455;-81
2022/08/26 08:30:18;;;;;;;7.40;3.40;;;;;;;28.47;40.89;100025.25;1456238;89;21501;-82
2022/08/26 08:32:45;;;;;;;12.28;3.70;;;;;;;28.61;40.71;100024.13;1440346;89;22720;-81
2022/08/26 08:35:16;;;;;;;10.63;2.90;;;;;;;28.76;40.95;100021.34;1443829;89;21568;-82
2022/08/26 08:37:44;;;;;;;7.22;3.20;;;;;;;28.90;39.98;100023.48;1450932;88;22550;-82
2022/08/26 08:40:15;;;;;;;8.33;3.52;;;;;;;28.95;37.37;100020.74;1447339;89;21600;-80
2022/08/26 08:43:08;;;;;;;15.35;3.47;;;;;;;29.04;38.60;100027.27;1429966;91;21614;-82
2022/08/26 08:45:41;;;;;;;26.50;4.47;;;;;;;29.17;38.76;100013.00;1439627;90;21509;-82
2022/08/26 08:48:21;;;;;;;11.85;3.30;;;;;;;29.27;37.92;100018.16;1442813;90;21641;-81
2022/08/26 08:51:03;;;;;;;19.40;3.75;;;;;;;29.38;37.51;100007.45;1446851;90;21630;-81
2022/08/26 08:53:40;;;;;;;16.07;3.20;;;;;;;29.50;38.53;100013.92;1428046;90;21696;-81
2022/08/26 08:56:34;;;;;;;10.95;3.60;;;;;;;29.58;36.62;100005.95;1445261;90;22288;-81
2022/08/26 08:59:21;;;;;;;13.48;3.47;;;;;;;29.70;37.04;100011.62;1435863;90;21555;-81
2022/08/26 09:02:00;;;;;;;16.62;4.33;;;;;;;29.83;36.15;100000.84;1450854;88;21515;-81
2022/08/26 09:04:55;;;;;;;21.17;3.55;;;;;;;29.94;35.53;100003.50;1438665;90;22414;-80
2022/08/26 09:07:36;;;;;;;14.15;4.22;;;;;;;30.00;33.51;100004.52;1450860;89;22419;-82
2022/08/26 09:10:33;;;;;;;15.53;3.10;;;;;;;30.19;34.90;100007.91;1450001;90;21590;-80
2022/08/26 09:13:01;;;;;;;13.25;3.45;;;;;;;30.33;33.96;100001.51;1443804;90;21479;-82
2022/08/26 09:16:12;;;;;;;17.20;3.62;;;;;;;30.48;33.56;100003.25;1440439;89;21486;-81
2022/08/26 09:19:03;;;;;;;13.88;2.80;;;;;;;30.42;31.64;99995.42;1442873;89;21538;-82
2022/08/26 09:21:31;;;;;;;14.95;3.55;;;;;;;30.42;32.46;99989.40;1452262;89;21639;-80
2022/08/26 09:23:58;;;;;;;10.70;3.08;;;;;;;30.67;33.73;99995.65;1438382;90;21611;-81
2022/08/26 09:26:29;;;;;;;13.50;3.25;;;;;;;30.82;33.11;99996.88;1449506;90;22593;-82
2022/08/26 09:29:07;;;;;;;10.25;3.00;;;;;;;30.97;33.12;99988.47;1461560;89;21486;-81
2022/08/26 09:31:37;;;;;;;21.57;3.70;;;;;;;31.14;33.53;99981.69;1446805;89;21611;-81
2022/08/26 09:34:23;;;;;;;13.40;3.05;;;;;;;31.32;32.31;99980.05;1445211;90;21506;-81
2022/08/26 09:36:57;;;;;;;18.77;4.53;;;;;;;31.41;31.88;99976.38;1430820;90;21440;-81
2022/08/26 09:39:32;;;;;;;12.00;3.98;;;;;;;31.51;32.10;99971.88;1427105;91;22445;-82
2022/08/26 09:42:14;;;;;;;18.55;3.27;;;;;;;31.65;32.07;99980.38;1444346;90;21559;-82
2022/08/26 09:44:55;;;;;;;21.02;3.70;;;;;;;31.59;29.35;99978.01;1447777;88;21492;-81
2022/08/26 09:47:35;;;;;;;14.15;3.85;;;;;;;31.67;30.85;99962.29;1426979;90;22314;-80
2022/08/26 09:50:27;;;;;;;17.05;3.58;;;;;;;31.72;30.90;99967.68;1439890;90;21381;-82
2022/08/26 09:53:14;;;;;;;22.45;4.25;;;;;;;31.86;31.31;99965.80;1452747;90;22334;-82
2022/08/26 09:55:46;;;;;;;19.07;3.70;;;;;;;32.03;30.34;99960.34;1449287;90;21425;-81
2022/08/26 09:58:17;;;;;;;14.50;3.87;;;;;;;32.22;30.50;99960.23;1456225;90;21418;-82
2022/08/26 10:00:56;;;;;;;15.98;3.58;;;;;;;32.35;30.39;99961.62;1460345;90;21483;-80
2022/08/26 10:03:27;;;;;;;17.32;4.80;;;;;;;32.49;29.99;99956.73;1435393;90;21418;-82
2022/08/26 10:06:01;;;;;;;23.32;3.98;;;;;;;32.60;29.21;99954.05;1449814;90;21551;-81
2022/08/26 10:08:39;;;;;;;15.15;3.30;;;;;;;32.73;29.86;99958.67;1436048;91;22278;-82
2022/08/26 10:11:23;;;;;;;21.80;3.58;;;;;;;32.78;29.34;99955.03;1434877;90;21588;-82
2022/08/26 10:13:54;;;;;;;21.93;3.85;;;;;;;32.87;27.71;99955.91;1439413;90;21550;-81
2022/08/26 10:16:51;;;;;;;14.60;3.58;;;;;;;33.02;28.52;99954.79;1432952;90;22513;-82
2022/08/26 10:19:24;;;;;;;20.80;3.45;;;;;;;33.09;27.30;99955.72;1425720;91;21443;-82
2022/08/26 10:22:01;;;;;;;22.22;4.05;;;;;;;33.05;27.40;99951.42;1427311;91;22311;-81
2022/08/26 10:24:50;;;;;;;12.80;3.02;;;;;;;33.19;28.05;99945.34;1421554;90;21422;-82
2022/08/26 10:27:49;;;;;;;17.82;3.37;;;;;;;33.28;26.77;99947.34;1424888;90;22299;-82
2022/08/26 10:30:20;;;;;;;25.35;5.05;;;;;;;33.34;26.19;99947.47;1443145;90;21709;-81
2022/08/26 10:32:51;;;;;;;14.28;3.45;;;;;;;33.34;26.52;99951.02;1451509;90;21607;-82
2022/08/26 10:35:18;;;;;;;15.63;3.35;;;;;;;33.41;27.21;99945.92;1448390;89;21507;-82
2022/08/26 10:37:54;;;;;;;21.07;3.35;;;;;;;33.31;24.88;99946.72;1443116;91;21462;-81
2022/08/26 10:40:45;;;;;;;13.03;3.98;;;;;;;33.29;26.28;99936.61;1444616;90;21366;-81
2022/08/26 10:43:20;;;;;;;21.15;4.58;;;;;;;33.38;27.25;99938.88;1437289;90;21618;-82
2022/08/26 10:45:51;;;;;;;26.10;4.20;;;;;;;33.49;26.68;99934.73;1455138;89;21595;-82
2022/08/26 10:48:32;;;;;;;20.57;3.47;;;;;;;33.50;25.91;99935.57;1428845;91;22407;-82
2022/08/26 10:51:01;;;;;;;18.82;3.33;;;;;;;33.39;25.91;99931.70;1426023;90;22593;-81
2022/08/26 10:53:37;;;;;;;;;;;;;;;33.46;26.22;99926.60;1457360;89;21620;-81
2022/08/26 10:56:30;;;;;;;14.13;3.50;;;;;;;33.59;25.71;99929.61;1449967;89;20388;-82
2022/08/26 10:59:05;;;;;;;22.15;3.60;;;;;;;33.68;26.38;99923.03;1384143;94;21589;-81
2022/08/26 11:01:58;;;;;;;15.45;2.83;;;;;;;33.75;26.59;99925.35;1441112;89;21515;-81
2022/08/26 11:04:45;;;;;;;9.70;3.35;;;;;;;33.89;25.81;99924.70;1444500;90;21661;-82
2022/08/26 11:07:45;;;;;;;12.18;2.47;;;;;;;33.97;25.23;99927.22;1453902;90;21453;-82
2022/08/26 11:10:19;;;;;;;12.55;3.08;;;;;;;33.98;25.11;99919.78;1451038;90;21602;-81
2022/08/26 11:12:51;;;;;;;18.30;3.83;;;;;;;33.95;25.71;99925.91;1429144;90;21573;-82
2022/08/26 11:15:28;;;;;;;14.85;3.33;;;;;;;34.00;25.28;99919.72;1441919;90;21462;-82
2022/08/26 11:18:11;;;;;;;14.53;3.12;;;;;;;34.02;25.54;99916.10;1453132;90;21602;-82
2022/08/26 11:20:44;;;;;;;9.45;2.67;;;;;;;34.07;24.93;99911.08;1441959;90;22341;-82
2022/08/26 11:23:27;;;;;;;15.10;3.27;;;;;;;34.18;25.91;99906.09;1427666;90;22394;-81
2022/08/26 11:26:10;;;;;;;15.93;3.45;;;;;;;34.14;24.51;99903.98;1446263;90;21514;-81
2022/08/26 11:28:49;;;;;;;11.65;2.65;;;;;;;34.18;25.25;99907.45;1449604;90;22268;-81
2022/08/26 11:31:29;;;;;;;16.70;3.35;;;;;;;34.28;25.41;99907.18;1450516;90;21453;-81
2022/08/26 11:34:08;;;;;;;30.10;3.83;;;;;;;34.35;25.23;99900.10;1444312;90;22431;-82
2022/08/26 11:36:39;;;;;;;16.77;3.57;;;;;;;34.23;24.47;99899.08;1427558;91;21439;-81
2022/08/26 11:39:28;;;;;;;14.00;3.47;;;;;;;34.23;24.53;99898.52;1427343;91;21732;-81
2022/08/26 11:42:02;;;;;;;16.77;3.00;;;;;;;34.30;24.86;99900.24;1430439;90;22061;-81
2022/08/26 11:44:40;;;;;;;7.72;2.70;;;;;;;34.23;24.15;99892.22;1430733;91;22571;-81